^^
Lisbon, NH - Weather Station Historical Data
Daily Summary for November 13, 2021 Units:  English    Metric   Both
Daily Weekly Monthly Yearly
  High: Low: Average:
Temperature: 47 °F 35.5 °F 38.9 °F
Dew Point: 47 °F 35.5 °F 38.9 °F
Humidity: 100% 99% 100%
Wind Speed: 3.3mph 0mph 0.7mph
Wind Gust: 7mph - -
Wind- - SSE
Pressure: 29.87 in 29.74 in -
Precipitation: 0.00 in    
 
 
Tabular Data for November 13, 2021
Time Temperature Dew Point Pressure Wind Wind Speed Wind Gust Humidity Rainfall Rate (Hourly) solar
00:04 41.9 °F 41.9 °F 29.87 in ENE 1 mph 2 mph 100% 0.00 in 0 W/m2
00:09 41.9 °F 41.9 °F 29.87 in ENE 1.3 mph 3 mph 100% 0.00 in 0 W/m2
00:14 41.7 °F 41.7 °F 29.87 in NE 0.2 mph 2 mph 100% 0.00 in 0 W/m2
00:19 41.6 °F 41.6 °F 29.87 in NE 0.1 mph 1 mph 100% 0.00 in 0 W/m2
00:24 41.6 °F 41.6 °F 29.87 in NNE 0.1 mph 1 mph 100% 0.00 in 0 W/m2
00:29 41.5 °F 41.5 °F 29.87 in NNE 0.1 mph 1 mph 100% 0.00 in 0 W/m2
00:34 41.4 °F 41.4 °F 29.87 in NE 0.3 mph 2 mph 100% 0.00 in 0 W/m2
00:39 41.2 °F 41.2 °F 29.87 in NE 0.3 mph 2 mph 100% 0.00 in 0 W/m2
00:44 41.1 °F 41.1 °F 29.87 in Calm   2 mph 100% 0.00 in 0 W/m2
00:49 41 °F 41 °F 29.87 in Calm   1 mph 100% 0.00 in 0 W/m2
00:54 40.8 °F 40.8 °F 29.87 in NE 0.1 mph 1 mph 100% 0.00 in 0 W/m2
00:59 40.6 °F 40.6 °F 29.87 in Calm     100% 0.00 in 0 W/m2
01:04 40.6 °F 40.6 °F 29.87 in NE 0.7 mph 2 mph 100% 0.00 in 0 W/m2
01:09 40.6 °F 40.6 °F 29.87 in ENE 0.6 mph 2 mph 100% 0.00 in 0 W/m2
01:14 40.5 °F 40.5 °F 29.87 in NE 1.1 mph 2 mph 100% 0.00 in 0 W/m2
01:19 40.3 °F 40.3 °F 29.87 in NE 1.2 mph 2 mph 100% 0.00 in 0 W/m2
01:24 40.2 °F 40.2 °F 29.87 in ENE 1.1 mph 2 mph 100% 0.00 in 0 W/m2
01:29 40.1 °F 40.1 °F 29.87 in NE 0.4 mph 2 mph 100% 0.00 in 0 W/m2
01:34 40 °F 40 °F 29.87 in Calm     100% 0.00 in 0 W/m2
01:39 39.9 °F 39.9 °F 29.87 in Calm     100% 0.00 in 0 W/m2
01:44 39.9 °F 39.9 °F 29.87 in NE 0.1 mph 1 mph 100% 0.00 in 0 W/m2
01:49 39.8 °F 39.8 °F 29.86 in Calm   1 mph 100% 0.00 in 0 W/m2
01:54 39.6 °F 39.6 °F 29.86 in NNE 0.5 mph 1 mph 100% 0.00 in 0 W/m2
01:59 39.5 °F 39.5 °F 29.87 in NNE 0.3 mph 1 mph 100% 0.00 in 0 W/m2
02:04 39.4 °F 39.4 °F 29.87 in Calm     100% 0.00 in 0 W/m2
02:09 39.3 °F 39.3 °F 29.87 in NNE 0.3 mph 1 mph 100% 0.00 in 0 W/m2
02:14 39.3 °F 39.3 °F 29.87 in Calm     100% 0.00 in 0 W/m2
02:19 39.2 °F 39.2 °F 29.86 in Calm     100% 0.00 in 0 W/m2
02:24 39.2 °F 39.2 °F 29.86 in NNE 0.2 mph 1 mph 100% 0.00 in 0 W/m2
02:29 39.2 °F 39.2 °F 29.86 in Calm   1 mph 100% 0.00 in 0 W/m2
02:34 39.2 °F 39.2 °F 29.86 in Calm     100% 0.00 in 0 W/m2
02:39 39.2 °F 39.2 °F 29.86 in Calm     100% 0.00 in 0 W/m2
02:44 39.2 °F 39.2 °F 29.86 in NNE 0.1 mph 1 mph 100% 0.00 in 0 W/m2
02:49 39.1 °F 39.1 °F 29.86 in NNE 0.2 mph 1 mph 100% 0.00 in 0 W/m2
02:54 39 °F 39 °F 29.86 in NE 0.8 mph 2 mph 100% 0.00 in 0 W/m2
02:59 38.7 °F 38.7 °F 29.86 in ENE 0.6 mph 2 mph 100% 0.00 in 0 W/m2
03:04 38.5 °F 38.5 °F 29.86 in ENE 1 mph 2 mph 100% 0.00 in 0 W/m2
03:09 38.5 °F 38.5 °F 29.86 in ENE 1.9 mph 3 mph 100% 0.00 in 0 W/m2
03:14 38.5 °F 38.5 °F 29.86 in ENE 1.9 mph 3 mph 100% 0.00 in 0 W/m2
03:19 38.3 °F 38.3 °F 29.85 in ENE 1.2 mph 3 mph 100% 0.00 in 0 W/m2
03:24 38.3 °F 38.3 °F 29.85 in NE 0.9 mph 2 mph 100% 0.00 in 0 W/m2
03:29 38.2 °F 38.2 °F 29.85 in NNE 0.1 mph 2 mph 100% 0.00 in 0 W/m2
03:34 38.1 °F 38.1 °F 29.84 in North 0.3 mph 2 mph 100% 0.00 in 0 W/m2
03:39 38 °F 38 °F 29.84 in North 0.2 mph 2 mph 100% 0.00 in 0 W/m2
03:44 37.8 °F 37.8 °F 29.85 in NNW 0.6 mph 2 mph 100% 0.00 in 0 W/m2
03:49 37.6 °F 37.6 °F 29.85 in NNW 0.7 mph 2 mph 100% 0.00 in 0 W/m2
03:54 37.3 °F 37.3 °F 29.85 in NNW 0.3 mph 1 mph 100% 0.00 in 0 W/m2
03:59 37.2 °F 37.2 °F 29.85 in Calm     100% 0.00 in 0 W/m2
04:04 37 °F 37 °F 29.85 in NNW 0.3 mph 1 mph 100% 0.00 in 0 W/m2
04:09 37 °F 37 °F 29.85 in NNW 0.7 mph 1 mph 100% 0.00 in 0 W/m2
04:14 37 °F 37 °F 29.85 in NNW 0.1 mph 1 mph 100% 0.00 in 0 W/m2
04:19 37 °F 37 °F 29.84 in Calm     100% 0.00 in 0 W/m2
04:24 37 °F 37 °F 29.84 in Calm   1 mph 100% 0.00 in 0 W/m2
04:29 37 °F 37 °F 29.85 in NNW 0.2 mph 1 mph 100% 0.00 in 0 W/m2
04:34 37 °F 37 °F 29.85 in NNW 0.1 mph 1 mph 100% 0.00 in 0 W/m2
04:39 36.9 °F 36.9 °F 29.85 in NNW 0.1 mph 1 mph 100% 0.00 in 0 W/m2
04:44 36.9 °F 36.9 °F 29.85 in Calm     100% 0.00 in 0 W/m2
04:49 36.9 °F 36.9 °F 29.85 in NNW 0.3 mph 1 mph 100% 0.00 in 0 W/m2
04:54 36.8 °F 36.8 °F 29.85 in NNW 0.3 mph 1 mph 100% 0.00 in 0 W/m2
04:59 36.8 °F 36.8 °F 29.85 in Calm   1 mph 100% 0.00 in 0 W/m2
05:04 36.6 °F 36.6 °F 29.84 in NNW 0.4 mph 2 mph 100% 0.00 in 0 W/m2
05:09 36.6 °F 36.6 °F 29.84 in NNW 0.7 mph 2 mph 100% 0.00 in 0 W/m2
05:14 36.5 °F 36.5 °F 29.84 in NNW 0.1 mph 1 mph 100% 0.00 in 0 W/m2
05:19 36.5 °F 36.5 °F 29.83 in Calm     100% 0.00 in 0 W/m2
05:24 36.5 °F 36.5 °F 29.83 in NNW 0.1 mph 1 mph 100% 0.00 in 0 W/m2
05:29 36.6 °F 36.6 °F 29.83 in NE 1 mph 3 mph 100% 0.00 in 0 W/m2
05:34 36.6 °F 36.6 °F 29.83 in NE 1.2 mph 3 mph 100% 0.00 in 0 W/m2
05:39 36.6 °F 36.6 °F 29.83 in NE 1.2 mph 2 mph 100% 0.00 in 0 W/m2
05:44 36.5 °F 36.5 °F 29.83 in ENE 1.2 mph 2 mph 100% 0.00 in 0 W/m2
05:49 36.5 °F 36.5 °F 29.83 in NE 1.1 mph 2 mph 100% 0.00 in 0 W/m2
05:54 36.4 °F 36.4 °F 29.83 in ENE 1.1 mph 2 mph 100% 0.00 in 0 W/m2
05:59 36.1 °F 36.1 °F 29.83 in East 1.1 mph 2 mph 100% 0.00 in 0 W/m2
06:04 36 °F 36 °F 29.83 in East 0.3 mph 2 mph 100% 0.00 in 0 W/m2
06:09 35.9 °F 35.9 °F 29.83 in East 0.1 mph 1 mph 100% 0.00 in 0 W/m2
06:14 35.9 °F 35.9 °F 29.83 in North 0.5 mph 1 mph 100% 0.00 in 0 W/m2
06:19 35.8 °F 35.8 °F 29.82 in NNW 0.4 mph 2 mph 100% 0.00 in 0 W/m2
06:24 35.8 °F 35.8 °F 29.82 in NNW 1.1 mph 2 mph 100% 0.00 in 0 W/m2
06:29 35.6 °F 35.6 °F 29.82 in NNW 0.5 mph 2 mph 100% 0.00 in 0 W/m2
06:34 35.5 °F 35.5 °F 29.82 in NNW 0.5 mph 1 mph 100% 0.00 in 0 W/m2
06:39 35.5 °F 35.5 °F 29.82 in NW 0.4 mph 2 mph 100% 0.00 in 5 W/m2
06:44 35.5 °F 35.5 °F 29.83 in NW 0.2 mph 1 mph 100% 0.00 in 5 W/m2
06:49 35.6 °F 35.6 °F 29.83 in NW 0.3 mph 1 mph 100% 0.00 in 7 W/m2
06:54 35.6 °F 35.6 °F 29.83 in NW 0.1 mph 1 mph 100% 0.00 in 9 W/m2
06:59 35.6 °F 35.6 °F 29.83 in Calm     100% 0.00 in 9 W/m2
07:04 35.8 °F 35.8 °F 29.83 in Calm     100% 0.00 in 9 W/m2
07:09 35.8 °F 35.8 °F 29.83 in NW 0.1 mph 1 mph 100% 0.00 in 9 W/m2
07:14 35.8 °F 35.8 °F 29.84 in North 0.1 mph 2 mph 100% 0.00 in 11 W/m2
07:19 35.9 °F 35.9 °F 29.84 in ENE 0.2 mph 2 mph 100% 0.00 in 12 W/m2
07:24 36 °F 36 °F 29.84 in South 0.3 mph 2 mph 100% 0.00 in 14 W/m2
07:29 36.2 °F 36.2 °F 29.84 in SSW 0.2 mph 2 mph 100% 0.00 in 14 W/m2
07:34 36.3 °F 36.3 °F 29.84 in Calm   1 mph 100% 0.00 in 21 W/m2
07:39 36.5 °F 36.5 °F 29.84 in Calm   1 mph 100% 0.00 in 28 W/m2
07:44 36.5 °F 36.5 °F 29.84 in SSE 0.3 mph 1 mph 100% 0.00 in 32 W/m2
07:49 36.5 °F 36.5 °F 29.83 in SE 0.1 mph 1 mph 100% 0.00 in 33 W/m2
07:54 36.5 °F 36.5 °F 29.83 in ESE 0.3 mph 1 mph 100% 0.00 in 39 W/m2
07:59 36.6 °F 36.6 °F 29.83 in ENE 1 mph 3 mph 100% 0.00 in 46 W/m2
08:04 36.8 °F 36.8 °F 29.82 in ENE 1.3 mph 3 mph 100% 0.00 in 51 W/m2
08:09 36.8 °F 36.8 °F 29.82 in ENE 0.6 mph 3 mph 100% 0.00 in 48 W/m2
08:14 36.9 °F 36.9 °F 29.82 in ENE 0.2 mph 1 mph 100% 0.00 in 39 W/m2
08:19 36.9 °F 36.9 °F 29.82 in ENE 0.5 mph 1 mph 100% 0.00 in 53 W/m2
08:24 36.9 °F 36.9 °F 29.82 in ENE 0.5 mph 2 mph 100% 0.00 in 72 W/m2
08:29 37.1 °F 37.1 °F 29.82 in ENE 0.1 mph 1 mph 100% 0.00 in 174 W/m2
08:34 37.3 °F 37.3 °F 29.82 in ENE 0.1 mph 1 mph 100% 0.00 in 208 W/m2
08:39 37.6 °F 37.6 °F 29.82 in East 0.5 mph 2 mph 100% 0.00 in 171 W/m2
08:44 37.8 °F 37.8 °F 29.82 in East 0.3 mph 2 mph 100% 0.00 in 171 W/m2
08:49 37.8 °F 37.8 °F 29.81 in SE 0.2 mph 1 mph 100% 0.00 in 137 W/m2
08:54 38 °F 38 °F 29.81 in SE 0.4 mph 2 mph 100% 0.00 in 127 W/m2
08:59 38 °F 38 °F 29.81 in SSE 0.5 mph 2 mph 100% 0.00 in 153 W/m2
09:04 38.2 °F 38.2 °F 29.80 in SSE 0.4 mph 2 mph 100% 0.00 in 153 W/m2
09:09 38.4 °F 38.4 °F 29.80 in SSE 0.2 mph 1 mph 100% 0.00 in 202 W/m2
09:14 39 °F 39 °F 29.80 in SSE 0.9 mph 3 mph 100% 0.00 in 542 W/m2
09:19 39.9 °F 39.9 °F 29.80 in SE 0.7 mph 3 mph 100% 0.00 in 535 W/m2
09:24 40.5 °F 40.5 °F 29.80 in ESE 1.2 mph 2 mph 100% 0.00 in 496 W/m2
09:29 40.7 °F 40.7 °F 29.80 in SW 1.3 mph 3 mph 100% 0.00 in 285 W/m2
09:34 40.8 °F 40.8 °F 29.79 in SSW 2.4 mph 6 mph 100% 0.00 in 238 W/m2
09:39 41.1 °F 41.1 °F 29.79 in South 2.2 mph 6 mph 100% 0.00 in 225 W/m2
09:44 41.2 °F 41.2 °F 29.79 in SSE 1.5 mph 6 mph 100% 0.00 in 223 W/m2
09:49 41.5 °F 41.5 °F 29.79 in SSW 1.8 mph 6 mph 100% 0.00 in 503 W/m2
09:54 42.1 °F 42.1 °F 29.79 in SSW 2 mph 5 mph 100% 0.00 in 479 W/m2
09:59 42.5 °F 42.5 °F 29.79 in South 2.1 mph 5 mph 100% 0.00 in 412 W/m2
10:04 42.6 °F 42.6 °F 29.77 in SSW 2 mph 5 mph 100% 0.00 in 401 W/m2
10:09 43 °F 43 °F 29.77 in SE 1.1 mph 4 mph 100% 0.00 in 399 W/m2
10:14 43.1 °F 43.1 °F 29.77 in SSE 1.7 mph 3 mph 100% 0.00 in 424 W/m2
10:19 43.4 °F 43.4 °F 29.77 in SSW 1.3 mph 3 mph 100% 0.00 in 438 W/m2
10:24 44.1 °F 44.1 °F 29.77 in SSW 2.4 mph 7 mph 100% 0.00 in 426 W/m2
10:29 44.4 °F 44.4 °F 29.77 in SSW 2.7 mph 7 mph 100% 0.00 in 413 W/m2
10:34 44.8 °F 44.8 °F 29.76 in SSW 2.6 mph 7 mph 100% 0.00 in 422 W/m2
10:39 45.3 °F 45.3 °F 29.76 in SSW 2.8 mph 6 mph 100% 0.00 in 433 W/m2
10:44 45.5 °F 45.5 °F 29.76 in SSW 2 mph 6 mph 100% 0.00 in 415 W/m2
10:49 46.1 °F 46.1 °F 29.75 in SW 3.3 mph 7 mph 100% 0.00 in 426 W/m2
10:54 46.5 °F 46.5 °F 29.75 in SW 1.5 mph 7 mph 100% 0.00 in 424 W/m2
10:59 47 °F 47 °F 29.75 in WNW 1.6 mph 4 mph 100% 0.00 in 366 W/m2
11:04 47 °F 47 °F 29.74 in WNW 1.7 mph 5 mph 100% 0.00 in 259 W/m2
11:09 46.9 °F 46.7 °F 29.74 in WNW 2.6 mph 6 mph 99.4% 0.00 in 313 W/m2
11:10 46.8 °F 46.5 °F 29.74 in West 1.6 mph 4 mph 99% 0.00 in 278 W/m2
Lisbon, New Hampshire, USA
Compliments of Weather Underground - 3.25 mb